EFW4SS EGKK-LIMF
Flight info
| Callsign | EFW4SS |
|---|---|
| Flight time | N/A |
| Altitude | 35000 |
| Route | SFD4Z SFD Y47 BENBO L612 XAMAB UL612 OGULO DCT OKASI DCT OKEKO DCT MOU DCT MADIV DCT MOKIP DCT TUFTA DCT GEVEA DCT MOBLO DCT LURAG M135 VEROB VEROB2F |
| Aircraft | A320/M-SDE3FGIJ1KRWXY/S |
Departure
| Time | 2026-05-06 19:28 |
|---|---|
| Airport | London Gatwick Airport (EGKK) |
Arrival
| Time | N/A |
|---|---|
| Airport | Turin Airport (LIMF) |
| Time | Latitude | Longitude | Altitude | Speed | Heading |
|---|---|---|---|---|---|
| 2026-05-06 18:04 | 51.15446 | -0.16421 | 213 ft | 0 kts | 77° |
| 2026-05-06 19:11 | 51.15445 | -0.16424 | 212 ft | 1 kts | 77° |
| 2026-05-06 19:11 | 51.15442 | -0.16451 | 211 ft | 3 kts | 78° |
| 2026-05-06 19:11 | 51.15438 | -0.16481 | 204 ft | 3 kts | 68° |
| 2026-05-06 19:12 | 51.15429 | -0.16501 | 212 ft | 3 kts | 14° |
| 2026-05-06 19:12 | 51.15412 | -0.16503 | 208 ft | 2 kts | 348° |
| 2026-05-06 19:12 | 51.15400 | -0.16499 | 206 ft | 3 kts | 347° |
| 2026-05-06 19:12 | 51.15391 | -0.16495 | 209 ft | 0 kts | 347° |
| 2026-05-06 19:17 | 51.15391 | -0.16496 | 209 ft | 0 kts | 347° |
| 2026-05-06 19:17 | 51.15392 | -0.16496 | 208 ft | 0 kts | 347° |
| 2026-05-06 19:18 | 51.15394 | -0.16496 | 208 ft | 1 kts | 347° |
| 2026-05-06 19:18 | 51.15403 | -0.16503 | 206 ft | 3 kts | 332° |
| 2026-05-06 19:18 | 51.15411 | -0.16548 | 207 ft | 5 kts | 269° |
| 2026-05-06 19:18 | 51.15403 | -0.16622 | 204 ft | 8 kts | 259° |
| 2026-05-06 19:19 | 51.15390 | -0.16718 | 204 ft | 12 kts | 257° |
| 2026-05-06 19:19 | 51.15371 | -0.16856 | 213 ft | 14 kts | 258° |
| 2026-05-06 19:19 | 51.15351 | -0.17011 | 204 ft | 15 kts | 258° |
| 2026-05-06 19:19 | 51.15328 | -0.17183 | 211 ft | 17 kts | 258° |
| 2026-05-06 19:20 | 51.15306 | -0.17375 | 209 ft | 19 kts | 262° |
| 2026-05-06 19:20 | 51.15283 | -0.17591 | 208 ft | 21 kts | 258° |
| 2026-05-06 19:20 | 51.15253 | -0.17819 | 209 ft | 22 kts | 258° |
| 2026-05-06 19:20 | 51.15221 | -0.18068 | 205 ft | 24 kts | 258° |
| 2026-05-06 19:21 | 51.15184 | -0.18318 | 213 ft | 23 kts | 257° |
| 2026-05-06 19:21 | 51.15150 | -0.18579 | 204 ft | 25 kts | 258° |
| 2026-05-06 19:21 | 51.15115 | -0.18824 | 206 ft | 22 kts | 258° |
| 2026-05-06 19:21 | 51.15082 | -0.19066 | 210 ft | 23 kts | 257° |
| 2026-05-06 19:22 | 51.15038 | -0.19254 | 209 ft | 13 kts | 212° |
| 2026-05-06 19:22 | 51.14958 | -0.19315 | 211 ft | 13 kts | 241° |
| 2026-05-06 19:22 | 51.14930 | -0.19473 | 206 ft | 17 kts | 259° |
| 2026-05-06 19:22 | 51.14905 | -0.19675 | 208 ft | 20 kts | 258° |
| 2026-05-06 19:23 | 51.14870 | -0.19909 | 209 ft | 24 kts | 256° |
| 2026-05-06 19:23 | 51.14848 | -0.20088 | 203 ft | 26 kts | 260° |
| 2026-05-06 19:23 | 51.14812 | -0.20390 | 209 ft | 29 kts | 258° |
| 2026-05-06 19:23 | 51.14760 | -0.20754 | 203 ft | 20 kts | 257° |
| 2026-05-06 19:24 | 51.14741 | -0.20889 | 204 ft | 10 kts | 257° |
| 2026-05-06 19:24 | 51.14725 | -0.21004 | 212 ft | 8 kts | 257° |
| 2026-05-06 19:24 | 51.14721 | -0.21036 | 207 ft | 3 kts | 258° |
| 2026-05-06 19:24 | 51.14714 | -0.21083 | 204 ft | 6 kts | 257° |
| 2026-05-06 19:25 | 51.14703 | -0.21164 | 204 ft | 9 kts | 258° |
| 2026-05-06 19:25 | 51.14686 | -0.21274 | 207 ft | 12 kts | 248° |
| 2026-05-06 19:25 | 51.14628 | -0.21325 | 206 ft | 4 kts | 173° |
| 2026-05-06 19:25 | 51.14608 | -0.21318 | 209 ft | 5 kts | 167° |
| 2026-05-06 19:26 | 51.14541 | -0.21266 | 208 ft | 15 kts | 134° |
| 2026-05-06 19:26 | 51.14527 | -0.21117 | 213 ft | 0 kts | 77° |
| 2026-05-06 19:27 | 51.14531 | -0.21092 | 207 ft | 12 kts | 77° |
| 2026-05-06 19:28 | 51.14607 | -0.20540 | 205 ft | 88 kts | 77° |
| 2026-05-06 19:28 | 51.14783 | -0.19254 | 205 ft | 146 kts | 78° |
| 2026-05-06 19:28 | 51.15029 | -0.17599 | 695 ft | 150 kts | 76° |
| 2026-05-06 19:28 | 51.15299 | -0.15975 | 1301 ft | 155 kts | 74° |
| 2026-05-06 19:29 | 51.15566 | -0.14267 | 1772 ft | 167 kts | 77° |
| 2026-05-06 19:29 | 51.15820 | -0.12332 | 2102 ft | 190 kts | 78° |
| 2026-05-06 19:29 | 51.16102 | -0.10131 | 2482 ft | 215 kts | 78° |
| 2026-05-06 19:29 | 51.16211 | -0.07680 | 3093 ft | 230 kts | 104° |
| 2026-05-06 19:30 | 51.15372 | -0.05498 | 3764 ft | 244 kts | 142° |
| 2026-05-06 19:30 | 51.13814 | -0.04277 | 4360 ft | 262 kts | 164° |
| 2026-05-06 19:30 | 51.12007 | -0.03653 | 5292 ft | 268 kts | 171° |
| 2026-05-06 19:30 | 51.10146 | -0.03224 | 6265 ft | 273 kts | 173° |
| 2026-05-06 19:31 | 51.08250 | -0.02730 | 6779 ft | 278 kts | 169° |
| 2026-05-06 19:31 | 51.06363 | -0.02046 | 6957 ft | 278 kts | 166° |
| 2026-05-06 19:31 | 51.02637 | -0.00367 | 7011 ft | 278 kts | 163° |
| 2026-05-06 19:32 | 51.00786 | 0.00524 | 7009 ft | 278 kts | 163° |
| 2026-05-06 19:32 | 50.98938 | 0.01416 | 7010 ft | 278 kts | 163° |
| 2026-05-06 19:32 | 50.97092 | 0.02307 | 7010 ft | 277 kts | 163° |
| 2026-05-06 19:32 | 50.95241 | 0.03192 | 7011 ft | 277 kts | 163° |
| 2026-05-06 19:33 | 50.93390 | 0.04071 | 7009 ft | 277 kts | 163° |
| 2026-05-06 19:33 | 50.91537 | 0.04945 | 7014 ft | 277 kts | 163° |
| 2026-05-06 19:33 | 50.89688 | 0.05818 | 7009 ft | 277 kts | 163° |
| 2026-05-06 19:33 | 50.87834 | 0.06672 | 7010 ft | 277 kts | 168° |
| 2026-05-06 19:34 | 50.85926 | 0.06770 | 7367 ft | 283 kts | 187° |
| 2026-05-06 19:34 | 50.83977 | 0.06406 | 8415 ft | 282 kts | 187° |
| 2026-05-06 19:34 | 50.82016 | 0.06067 | 9350 ft | 285 kts | 186° |
| 2026-05-06 19:34 | 50.80031 | 0.05731 | 10222 ft | 290 kts | 186° |
| 2026-05-06 19:35 | 50.77945 | 0.05376 | 10598 ft | 313 kts | 186° |
| 2026-05-06 19:35 | 50.75702 | 0.04995 | 10972 ft | 332 kts | 186° |
| 2026-05-06 19:35 | 50.73374 | 0.04653 | 11658 ft | 339 kts | 185° |
| 2026-05-06 19:35 | 50.71013 | 0.04348 | 12403 ft | 343 kts | 185° |
| 2026-05-06 19:36 | 50.68615 | 0.04050 | 13148 ft | 347 kts | 185° |
| 2026-05-06 19:36 | 50.66195 | 0.03752 | 13887 ft | 351 kts | 185° |
| 2026-05-06 19:36 | 50.63746 | 0.03443 | 14610 ft | 354 kts | 185° |
| 2026-05-06 19:36 | 50.61270 | 0.03125 | 15310 ft | 358 kts | 185° |
| 2026-05-06 19:37 | 50.58807 | 0.02807 | 15965 ft | 362 kts | 185° |
| 2026-05-06 19:37 | 50.56284 | 0.02480 | 16621 ft | 365 kts | 185° |
| 2026-05-06 19:37 | 50.53741 | 0.02148 | 17266 ft | 369 kts | 185° |
| 2026-05-06 19:37 | 50.51171 | 0.01810 | 17902 ft | 372 kts | 185° |
| 2026-05-06 19:38 | 50.48566 | 0.01556 | 18532 ft | 376 kts | 179° |
| 2026-05-06 19:38 | 50.45953 | 0.01988 | 19164 ft | 381 kts | 168° |
| 2026-05-06 19:38 | 50.43412 | 0.03232 | 19802 ft | 385 kts | 157° |
| 2026-05-06 19:38 | 50.41050 | 0.05242 | 20431 ft | 389 kts | 147° |
| 2026-05-06 19:39 | 50.38783 | 0.07596 | 21035 ft | 392 kts | 147° |
| 2026-05-06 19:39 | 50.36499 | 0.09959 | 21611 ft | 396 kts | 147° |
| 2026-05-06 19:39 | 50.34187 | 0.12341 | 22172 ft | 399 kts | 147° |
| 2026-05-06 19:39 | 50.31859 | 0.14740 | 22720 ft | 402 kts | 147° |
| 2026-05-06 19:40 | 50.29511 | 0.17158 | 23256 ft | 406 kts | 147° |
| 2026-05-06 19:40 | 50.27146 | 0.19590 | 23778 ft | 409 kts | 147° |
| 2026-05-06 19:40 | 50.24755 | 0.22048 | 24278 ft | 412 kts | 147° |
| 2026-05-06 19:40 | 50.22379 | 0.24485 | 24769 ft | 415 kts | 147° |
| 2026-05-06 19:41 | 50.19950 | 0.26974 | 25232 ft | 418 kts | 147° |
| 2026-05-06 19:41 | 50.17514 | 0.29473 | 25683 ft | 421 kts | 147° |
| 2026-05-06 19:41 | 50.15054 | 0.32000 | 26125 ft | 424 kts | 147° |
| 2026-05-06 19:41 | 50.12587 | 0.34538 | 26549 ft | 427 kts | 147° |
| 2026-05-06 19:42 | 50.10102 | 0.37095 | 26960 ft | 429 kts | 147° |
| 2026-05-06 19:42 | 50.07599 | 0.39663 | 27362 ft | 432 kts | 147° |
| 2026-05-06 19:42 | 50.05079 | 0.42242 | 27764 ft | 435 kts | 147° |
| 2026-05-06 19:42 | 50.02544 | 0.44835 | 28156 ft | 437 kts | 147° |
| 2026-05-06 19:43 | 49.99993 | 0.47443 | 28541 ft | 440 kts | 147° |
| 2026-05-06 19:43 | 49.97418 | 0.50072 | 28919 ft | 443 kts | 147° |
| 2026-05-06 19:43 | 49.94838 | 0.52698 | 29288 ft | 445 kts | 147° |
| 2026-05-06 19:43 | 49.92237 | 0.55336 | 29649 ft | 448 kts | 147° |
| 2026-05-06 19:44 | 49.89619 | 0.57990 | 30012 ft | 450 kts | 147° |
| 2026-05-06 19:44 | 49.86991 | 0.60655 | 30347 ft | 453 kts | 147° |
| 2026-05-06 19:44 | 49.84440 | 0.63535 | 30672 ft | 455 kts | 141° |
| 2026-05-06 19:44 | 49.82011 | 0.66606 | 30983 ft | 458 kts | 141° |
| 2026-05-06 19:45 | 49.79541 | 0.69724 | 31292 ft | 460 kts | 141° |
| 2026-05-06 19:45 | 49.77066 | 0.72847 | 31736 ft | 459 kts | 141° |
| 2026-05-06 19:45 | 49.74593 | 0.75958 | 32180 ft | 458 kts | 141° |
| 2026-05-06 19:45 | 49.72122 | 0.79052 | 32611 ft | 457 kts | 141° |
| 2026-05-06 19:46 | 49.69652 | 0.82140 | 33047 ft | 456 kts | 141° |
| 2026-05-06 19:46 | 49.67194 | 0.85216 | 33473 ft | 455 kts | 141° |
| 2026-05-06 19:46 | 49.64732 | 0.88290 | 33905 ft | 454 kts | 141° |
| 2026-05-06 19:46 | 49.62277 | 0.91351 | 34327 ft | 453 kts | 141° |
| 2026-05-06 19:47 | 49.59825 | 0.94404 | 34753 ft | 452 kts | 141° |
| 2026-05-06 19:47 | 49.57375 | 0.97450 | 34965 ft | 453 kts | 141° |
| 2026-05-06 19:47 | 49.52499 | 1.03508 | 35014 ft | 447 kts | 141° |
| 2026-05-06 19:48 | 49.47658 | 1.09506 | 35010 ft | 447 kts | 141° |
| 2026-05-06 19:48 | 49.42811 | 1.15484 | 35006 ft | 446 kts | 141° |
| 2026-05-06 19:49 | 49.37965 | 1.21458 | 35009 ft | 447 kts | 141° |
| 2026-05-06 19:49 | 49.33143 | 1.27388 | 35009 ft | 447 kts | 141° |
| 2026-05-06 19:50 | 49.28290 | 1.33342 | 35009 ft | 447 kts | 141° |
| 2026-05-06 19:50 | 49.23435 | 1.39285 | 35011 ft | 446 kts | 141° |
| 2026-05-06 19:51 | 49.18589 | 1.45226 | 35015 ft | 446 kts | 141° |
| 2026-05-06 19:51 | 49.13499 | 1.50634 | 35014 ft | 446 kts | 149° |
| 2026-05-06 19:52 | 49.08191 | 1.55552 | 35010 ft | 446 kts | 149° |
| 2026-05-06 19:52 | 49.02879 | 1.60442 | 35014 ft | 446 kts | 149° |
| 2026-05-06 19:53 | 48.97563 | 1.65317 | 35011 ft | 446 kts | 149° |
| 2026-05-06 19:53 | 48.92277 | 1.70155 | 35010 ft | 446 kts | 149° |
| 2026-05-06 19:54 | 48.86958 | 1.75018 | 35013 ft | 446 kts | 149° |
| 2026-05-06 19:54 | 48.81636 | 1.79875 | 35012 ft | 446 kts | 149° |
| 2026-05-06 19:55 | 48.76315 | 1.84722 | 35011 ft | 446 kts | 149° |
| 2026-05-06 19:55 | 48.70975 | 1.89566 | 35014 ft | 446 kts | 149° |
| 2026-05-06 19:56 | 48.65650 | 1.94390 | 35011 ft | 446 kts | 149° |
| 2026-05-06 19:56 | 48.60355 | 1.99181 | 35011 ft | 446 kts | 149° |
| 2026-05-06 19:57 | 48.55022 | 2.03984 | 35008 ft | 446 kts | 149° |
| 2026-05-06 19:57 | 48.49688 | 2.08788 | 35010 ft | 446 kts | 149° |
| 2026-05-06 19:58 | 48.44364 | 2.13600 | 35013 ft | 446 kts | 149° |
| 2026-05-06 19:58 | 48.39035 | 2.18395 | 35010 ft | 446 kts | 149° |
| 2026-05-06 19:59 | 48.33705 | 2.23180 | 35007 ft | 446 kts | 149° |
| 2026-05-06 19:59 | 48.28378 | 2.27960 | 35007 ft | 446 kts | 149° |
| 2026-05-06 20:00 | 48.23043 | 2.32730 | 35014 ft | 446 kts | 149° |
| 2026-05-06 20:00 | 48.17706 | 2.37478 | 35010 ft | 446 kts | 149° |
| 2026-05-06 20:01 | 48.12405 | 2.42190 | 35015 ft | 446 kts | 149° |
| 2026-05-06 20:01 | 48.07061 | 2.46924 | 35008 ft | 446 kts | 149° |
| 2026-05-06 20:02 | 48.01718 | 2.51646 | 35014 ft | 446 kts | 149° |